M/V Gs980 — WTK9405 — position and weather

sailwx.info

Track history (hours):
 
Tides and Currents Weather Stations Pressure Air Temp Water Temp Dewpoint Dewpoint Depression Visibility Wind Speed Wind Dir Waves Ship Positions

M/V Gs980

Owner: ERGON MARINE AND INDUSTRIAL SUPPLY, VICKSBURG, MS. More information available from US FCC via Universal Licensing System and Coast Guard Vessel Documentation Center.

Last reported at 2018-Jul-23 11:30 UTC. Time now 2018-Jul-23 11:53 UTC.
Position N 32°20' W 090°54'.

Length 16 m.

Type: Towing. MMSI: 367099640.

Date/timePositionNaut miles runAvg speedWind from/ knotsBaromVisibWave heightAir tempDewpointWater temp
2018-Jul-23 11:30N 32°20' W 090°54'0 0.0
2018-Jul-23 11:00N 32°20' W 090°54'0 0.0
2018-Jul-23 10:30N 32°20' W 090°54'0 0.0
2018-Jul-23 10:00N 32°20' W 090°54'0 0.0
2018-Jul-23 09:30N 32°20' W 090°54'0 0.0
2018-Jul-23 09:01N 32°20' W 090°54'0 0.0
2018-Jul-23 08:29N 32°20' W 090°54'0 0.0
2018-Jul-23 07:59N 32°20' W 090°54'0 0.0
2018-Jul-23 07:30N 32°20' W 090°54'0 0.0
2018-Jul-23 07:01N 32°20' W 090°54'0 0.0
2018-Jul-23 06:30N 32°20' W 090°54'0 0.0
2018-Jul-23 05:58N 32°20' W 090°54'0 0.0
2018-Jul-23 05:31N 32°20' W 090°54'1 2.7
2018-Jul-23 05:00N 32°19' W 090°55'1 1.3
2018-Jul-23 04:31N 32°18' W 090°55'0 0.0
2018-Jul-23 04:00N 32°18' W 090°55'0 0.0
2018-Jul-23 03:31N 32°18' W 090°55'0 0.0
2018-Jul-23 03:00N 32°18' W 090°55'0 0.0
2018-Jul-23 02:31N 32°18' W 090°55'0 0.0
2018-Jul-23 02:01N 32°18' W 090°55'0 0.0
2018-Jul-23 01:30N 32°18' W 090°55'0 0.0
2018-Jul-23 01:01N 32°18' W 090°55'1 1.4
2018-Jul-23 00:31N 32°18' W 090°56'0 0.0
2018-Jul-23 00:01N 32°18' W 090°56'0 0.0
2018-Jul-22 23:30N 32°18' W 090°56'2 0.1
2018-Jul-21 03:07N 32°20' W 090°54'0 0.0
2018-Jul-21 03:00N 32°20' W 090°54'0 0.0
2018-Jul-21 02:30N 32°20' W 090°54'0 0.0
2018-Jul-21 02:00N 32°20' W 090°54'0 0.0
2018-Jul-21 01:30N 32°20' W 090°54'0 0.0
2018-Jul-21 01:00N 32°20' W 090°54'0 0.0
2018-Jul-21 00:29N 32°20' W 090°54'0 0.0
2018-Jul-21 00:00N 32°20' W 090°54'0 0.7
2018-Jul-20 23:30N 32°20' W 090°54'0 0.7
2018-Jul-20 23:00N 32°20' W 090°54'0 0.0
2018-Jul-20 22:30N 32°20' W 090°54'0 0.0
2018-Jul-20 22:01N 32°20' W 090°54'0 0.0
2018-Jul-20 21:30N 32°20' W 090°54'0 0.0
2018-Jul-20 21:00N 32°20' W 090°54'0 0.0
2018-Jul-20 20:30N 32°20' W 090°54'0 0.0
2018-Jul-20 20:00N 32°20' W 090°54'0 0.0
2018-Jul-20 19:30N 32°20' W 090°54'0 0.0
2018-Jul-20 19:00N 32°20' W 090°54'0 0.0
2018-Jul-20 18:30N 32°20' W 090°54'0 0.0
2018-Jul-20 18:00N 32°20' W 090°54'0 0.0
2018-Jul-20 17:30N 32°20' W 090°54'0 0.0
2018-Jul-20 17:00N 32°20' W 090°54'3 5.3
2018-Jul-20 16:30N 32°22' W 090°53'1 2.7
2018-Jul-20 16:00N 32°23' W 090°53'0 0.0
2018-Jul-20 15:30N 32°23' W 090°53'0 0.0
2018-Jul-20 15:00N 32°23' W 090°53'0 0.0
2018-Jul-20 14:31N 32°23' W 090°53'0 0.0
2018-Jul-20 14:00N 32°23' W 090°53'0 0.1
2018-Jul-20 13:30N 32°23' W 090°53'0 0.8
2018-Jul-20 13:00N 32°23' W 090°54'1 2.8
2018-Jul-20 12:30N 32°22' W 090°53'1 1.6
2018-Jul-20 12:00N 32°22' W 090°53'2 4.5
2018-Jul-20 11:30N 32°20' W 090°54'0 0.0
2018-Jul-20 11:00N 32°20' W 090°54'0 0.0
2018-Jul-20 10:30N 32°20' W 090°54'2 4.2
2018-Jul-20 10:00N 32°22' W 090°53'0 0.0
2018-Jul-20 09:30N 32°22' W 090°53'0 0.0
2018-Jul-20 09:00N 32°22' W 090°53'0 0.0
2018-Jul-20 08:30N 32°22' W 090°53'0 0.0
2018-Jul-20 08:00N 32°22' W 090°53'0 0.0
2018-Jul-20 07:30N 32°22' W 090°53'0 0.2
2018-Jul-20 07:00N 32°22' W 090°53'2 3.2
2018-Jul-20 06:30N 32°23' W 090°53'2 3.4
2018-Jul-20 06:00N 32°22' W 090°53'0 0.6
2018-Jul-20 05:30N 32°21' W 090°53'3 6.0
2018-Jul-20 05:00N 32°19' W 090°55'1 1.1
2018-Jul-20 04:30N 32°18' W 090°55'0 0.0
2018-Jul-20 04:00N 32°18' W 090°55'0 0.1
2018-Jul-20 03:30N 32°18' W 090°55'0 0.1
2018-Jul-20 03:00N 32°18' W 090°55'0 0.1
2018-Jul-20 02:30N 32°18' W 090°55'2 4.6
2018-Jul-20 02:00N 32°20' W 090°54'0 0.1
2018-Jul-20 01:31N 32°20' W 090°54'1 1.4
2018-Jul-20 01:00N 32°21' W 090°53'3 5.5
2018-Jul-20 00:29N 32°18' W 090°55'0 0.0
2018-Jul-19 23:58N 32°18' W 090°55'1 1.6
2018-Jul-19 23:30N 32°19' W 090°54'1 1.8
2018-Jul-19 23:00N 32°20' W 090°54'0 0.0
2018-Jul-19 22:30N 32°20' W 090°54'0 0.0
2018-Jul-19 22:00N 32°20' W 090°54'0 0.0
2018-Jul-19 21:30N 32°20' W 090°54'1 1.1
2018-Jul-19 21:00N 32°20' W 090°54'0 0.2
2018-Jul-19 20:27N 32°20' W 090°54'2 4.7
2018-Jul-19 20:00N 32°22' W 090°53'1 2.8
2018-Jul-19 19:30N 32°23' W 090°53'0 0.7
2018-Jul-19 19:00N 32°23' W 090°54'1 1.5
2018-Jul-19 18:30N 32°23' W 090°53'1 1.3
2018-Jul-19 18:00N 32°22' W 090°53'1 2.1
2018-Jul-19 17:30N 32°23' W 090°53'1 2.2
2018-Jul-19 17:00N 32°22' W 090°53'1 2.3
2018-Jul-19 16:30N 32°23' W 090°53'1 1.1
2018-Jul-19 16:00N 32°23' W 090°53'1 1.3
2018-Jul-19 15:30N 32°22' W 090°53'3 5.4
2018-Jul-19 15:00N 32°20' W 090°54'0 0.3
2018-Jul-19 14:25N 32°20' W 090°54'0 0.0
2018-Jul-19 13:28N 32°20' W 090°54'0 0.0
2018-Jul-19 13:00N 32°20' W 090°54'0 0.0
2018-Jul-19 12:29N 32°20' W 090°54'0 0.0
2018-Jul-19 11:56N 32°20' W 090°54'0 0.0
2018-Jul-19 11:28N 32°20' W 090°54'0 0.0
2018-Jul-19 11:00N 32°20' W 090°54'0 0.0
2018-Jul-19 10:30N 32°20' W 090°54'0 0.0
2018-Jul-19 09:59N 32°20' W 090°54'0 0.0
2018-Jul-19 09:30N 32°20' W 090°54'0 0.0
2018-Jul-19 09:00N 32°20' W 090°54'0 0.0
2018-Jul-19 08:30N 32°20' W 090°54'0 0.0
2018-Jul-19 08:00N 32°20' W 090°54'1 2.4
2018-Jul-19 07:30N 32°19' W 090°55'1 1.3
2018-Jul-19 07:00N 32°18' W 090°55'0 0.1
2018-Jul-19 06:30N 32°18' W 090°55'1 1.4
2018-Jul-19 06:01N 32°19' W 090°54'3 6.6
2018-Jul-19 05:30N 32°22' W 090°53'2 3.5
2018-Jul-19 05:00N 32°23' W 090°54'1 2.8
2018-Jul-19 04:30N 32°22' W 090°53'1 1.1
2018-Jul-19 04:00N 32°22' W 090°53'0 0.1
2018-Jul-19 03:30N 32°22' W 090°53'1 1.6
2018-Jul-19 03:00N 32°22' W 090°53'1 1.2
2018-Jul-19 02:30N 32°22' W 090°53'2 4.1
2018-Jul-19 02:00N 32°20' W 090°54'2 4.0
2018-Jul-19 01:30N 32°18' W 090°55'3 6.6
2018-Jul-19 01:00N 32°21' W 090°53'2 4.2
2018-Jul-19 00:31N 32°23' W 090°53'0 1.0
2018-Jul-19 00:01N 32°23' W 090°53'0 0.2
2018-Jul-18 23:30N 32°23' W 090°53'0 0.0
2018-Jul-18 23:00N 32°23' W 090°53'0 0.0
2018-Jul-18 22:30N 32°23' W 090°53'2 3.5
2018-Jul-18 22:00N 32°21' W 090°53'1 2.5
2018-Jul-18 21:30N 32°20' W 090°54'2 4.4
2018-Jul-18 21:00N 32°22' W 090°53'1 3.0
2018-Jul-18 20:30N 32°21' W 090°53'1 1.9
2018-Jul-18 20:00N 32°20' W 090°54'2 4.5
2018-Jul-18 19:30N 32°18' W 090°55'0 0.1
2018-Jul-18 19:00N 32°18' W 090°55'0 0.0
2018-Jul-18 18:30N 32°18' W 090°55'0 0.0
2018-Jul-18 18:00N 32°18' W 090°55'0 0.0
2018-Jul-18 17:30N 32°18' W 090°55'0 0.1
2018-Jul-18 17:00N 32°18' W 090°55'0 0.1
2018-Jul-18 16:31N 32°18' W 090°55'0 0.1
2018-Jul-18 16:00N 32°18' W 090°55'0 0.1
2018-Jul-18 15:30N 32°18' W 090°55'0 0.0
2018-Jul-18 15:00N 32°18' W 090°55'0 0.2
2018-Jul-18 14:30N 32°18' W 090°55'0 0.1
2018-Jul-18 13:30N 32°18' W 090°55'3 5.8
2018-Jul-18 13:00N 32°21' W 090°53'2 4.9
2018-Jul-18 12:30N 32°23' W 090°53'0 0.9
2018-Jul-18 12:00N 32°23' W 090°53'3 6.3
2018-Jul-18 11:31N 32°20' W 090°54'3 3.3
2018-Jul-18 10:31N 32°23' W 090°54'0 0.3
2018-Jul-18 10:00N 32°23' W 090°54'0 0.6
2018-Jul-18 09:30N 32°23' W 090°53'0 0.0
2018-Jul-18 09:00N 32°23' W 090°53'0 0.0
2018-Jul-18 08:30N 32°23' W 090°53'0 0.0
2018-Jul-18 08:00N 32°23' W 090°53'0 0.0
2018-Jul-18 07:30N 32°23' W 090°53'0 0.0
2018-Jul-18 07:01N 32°23' W 090°53'0 0.0
2018-Jul-18 06:30N 32°23' W 090°53'0 0.0
2018-Jul-18 06:00N 32°23' W 090°53'0 0.0
2018-Jul-18 05:30N 32°23' W 090°53'0 0.0
2018-Jul-18 05:00N 32°23' W 090°53'0 0.0
2018-Jul-18 04:30N 32°23' W 090°53'0 0.0
2018-Jul-18 03:59N 32°23' W 090°53'0 0.0
2018-Jul-18 03:30N 32°23' W 090°53'0 0.0
2018-Jul-18 03:00N 32°23' W 090°53'0 0.0
2018-Jul-18 02:30N 32°23' W 090°53'1 1.8
2018-Jul-18 02:00N 32°22' W 090°53'3 5.2
2018-Jul-18 01:30N 32°20' W 090°54'2 3.9
2018-Jul-18 01:00N 32°18' W 090°55'0 0.0
2018-Jul-18 00:30N 32°18' W 090°55'3 6.9
2018-Jul-18 00:00N 32°21' W 090°53'2 3.2
2018-Jul-17 23:31N 32°20' W 090°54'0 0.3
2018-Jul-17 23:00N 32°20' W 090°54'0 0.0
2018-Jul-17 22:30N 32°20' W 090°54'1 1.9
2018-Jul-17 22:00N 32°20' W 090°54'0 0.1
2018-Jul-17 21:30N 32°21' W 090°54'2 4.8
2018-Jul-17 21:00N 32°23' W 090°53'1 1.8
2018-Jul-17 20:30N 32°23' W 090°53'0 0.0
2018-Jul-17 20:00N 32°23' W 090°53'0 0.0
2018-Jul-17 19:31N 32°23' W 090°53'0 0.0
2018-Jul-17 19:00N 32°23' W 090°53'0 0.0
2018-Jul-17 18:30N 32°23' W 090°53'0 0.0
2018-Jul-17 18:00N 32°23' W 090°53'0 0.0
2018-Jul-17 17:30N 32°23' W 090°53'0 0.0
2018-Jul-17 17:00N 32°23' W 090°53'0 0.8
2018-Jul-17 16:30N 32°23' W 090°53'2 3.1
2018-Jul-17 15:59N 32°21' W 090°53'2 3.6
2018-Jul-17 15:30N 32°23' W 090°53'0 0.1
2018-Jul-17 15:00N 32°23' W 090°53'0 0.8
2018-Jul-17 14:30N 32°23' W 090°54'0 0.3
2018-Jul-17 14:00N 32°23' W 090°54'1 2.2
2018-Jul-17 13:30N 32°23' W 090°53'2 3.4
2018-Jul-17 13:00N 32°21' W 090°53'1 1.7
2018-Jul-17 12:30N 32°21' W 090°54'0 0.0
2018-Jul-17 12:00N 32°21' W 090°54'1 1.2
2018-Jul-17 11:30N 32°20' W 090°54'0 0.8
2018-Jul-17 11:00N 32°20' W 090°54'0 0.0
2018-Jul-17 10:30N 32°20' W 090°54'1 1.7
2018-Jul-17 10:00N 32°20' W 090°54'3 5.3
2018-Jul-17 09:30N 32°23' W 090°53'0 0.0
2018-Jul-17 09:00N 32°23' W 090°53'0 0.0
2018-Jul-17 08:29N 32°23' W 090°53'0 0.1
2018-Jul-17 08:00N 32°23' W 090°53'1 1.7
2018-Jul-17 07:30N 32°23' W 090°54'1 1.8
2018-Jul-17 07:00N 32°23' W 090°53'0 0.1
2018-Jul-17 06:30N 32°23' W 090°53'1 1.9
2018-Jul-17 06:00N 32°23' W 090°54'0 0.9
2018-Jul-17 05:30N 32°23' W 090°53'0 0.0
2018-Jul-17 04:58N 32°23' W 090°53'0 0.0
2018-Jul-17 04:30N 32°23' W 090°53'0 0.0
2018-Jul-17 03:58N 32°23' W 090°53'0 0.2
2018-Jul-17 03:30N 32°23' W 090°54'0 0.2
2018-Jul-17 03:00N 32°23' W 090°53'0 0.2
2018-Jul-17 02:30N 32°23' W 090°53'0 0.3
2018-Jul-17 02:00N 32°23' W 090°53'2 3.4
2018-Jul-17 01:30N 32°22' W 090°53'2 3.1
2018-Jul-17 01:00N 32°20' W 090°54'2 4.5
2018-Jul-17 00:30N 32°22' W 090°53'3 2.6
2018-Jul-16 23:31N 32°20' W 090°54'0 0.4
2018-Jul-16 22:57N 32°20' W 090°54'2 4.7
2018-Jul-16 22:30N 32°22' W 090°53'1 2.5
2018-Jul-16 22:00N 32°23' W 090°53'1 1.7
2018-Jul-16 21:29N 32°23' W 090°53'0 0.0
2018-Jul-16 21:00N 32°23' W 090°53'0 0.0
2018-Jul-16 20:30N 32°23' W 090°53'0 0.0
2018-Jul-16 20:00N 32°23' W 090°53'0 0.1
2018-Jul-16 19:30N 32°23' W 090°53'1 1.6
2018-Jul-16 19:00N 32°23' W 090°53'3 5.5
2018-Jul-16 18:30N 32°20' W 090°54'2 4.6
2018-Jul-16 18:00N 32°22' W 090°53'1 2.3
2018-Jul-16 17:30N 32°23' W 090°53'0 0.0
2018-Jul-16 17:00N 32°23' W 090°53'0 0.6
2018-Jul-16 16:30N 32°23' W 090°53'3 5.5
2018-Jul-16 16:00N 32°20' W 090°54'2 3.6
2018-Jul-16 15:29N 32°19' W 090°55'1 2.5
2018-Jul-16 15:00N 32°20' W 090°54'3 6.1
2018-Jul-16 14:30N 32°23' W 090°52'1 1.9
2018-Jul-16 14:00N 32°23' W 090°53'2 4.1
2018-Jul-16 13:30N 32°21' W 090°53'1 2.8
2018-Jul-16 12:59N 32°21' W 090°55'2 4.1
2018-Jul-16 12:30N 32°21' W 090°57'2 4.2
2018-Jul-16 12:00N 32°21' W 090°54'1 2.3
2018-Jul-16 11:31N 32°20' W 090°54'0 0.0
2018-Jul-16 11:00N 32°20' W 090°54'0 0.0
2018-Jul-16 10:31N 32°20' W 090°54'0 0.0
2018-Jul-16 10:01N 32°20' W 090°54'0 0.0
2018-Jul-16 09:30N 32°20' W 090°54'0 0.0
2018-Jul-16 09:00N 32°20' W 090°54'0 0.0
2018-Jul-16 08:30N 32°20' W 090°54'0 0.0
2018-Jul-16 08:00N 32°20' W 090°54'2 4.7
2018-Jul-16 07:30N 32°21' W 090°56'0 0.2
2018-Jul-16 07:00N 32°21' W 090°56'0 0.2
2018-Jul-16 06:30N 32°21' W 090°56'0 0.6
2018-Jul-16 06:01N 32°21' W 090°56'0 0.0
2018-Jul-16 05:30N 32°21' W 090°56'1 2.9
2018-Jul-16 05:00N 32°21' W 090°55'1 2.0
2018-Jul-16 04:30N 32°20' W 090°54'2 3.8
2018-Jul-16 04:00N 32°19' W 090°55'1 1.7
2018-Jul-16 03:30N 32°18' W 090°55'0 0.9
2018-Jul-16 03:00N 32°18' W 090°55'2 4.6
2018-Jul-16 02:30N 32°20' W 090°54'0 0.0
2018-Jul-16 02:00N 32°20' W 090°54'0 0.0
2018-Jul-16 01:30N 32°20' W 090°54'1 1.2
2018-Jul-16 01:00N 32°20' W 090°54'2 3.4
2018-Jul-16 00:30N 32°18' W 090°55'2 3.1
2018-Jul-16 00:00N 32°19' W 090°54'2 3.2
2018-Jul-15 23:30N 32°21' W 090°53'1 2.7
2018-Jul-15 22:59N 32°20' W 090°54'0 0.0
2018-Jul-15 22:28N 32°20' W 090°54'1 2.3
2018-Jul-15 22:01N 32°21' W 090°54'3 5.2
2018-Jul-15 21:30N 32°23' W 090°53'1 2.2
2018-Jul-15 21:00N 32°22' W 090°53'0 0.1
2018-Jul-15 20:30N 32°22' W 090°53'1 2.3
2018-Jul-15 20:00N 32°23' W 090°53'0 0.0
2018-Jul-15 19:30N 32°23' W 090°53'0 0.0
2018-Jul-15 19:00N 32°23' W 090°53'0 0.0
2018-Jul-15 18:30N 32°23' W 090°53'0 0.0
2018-Jul-15 18:00N 32°23' W 090°53'0 0.0
2018-Jul-15 17:30N 32°23' W 090°53'0 0.0
2018-Jul-15 17:00N 32°23' W 090°53'0 0.0
2018-Jul-15 16:30N 32°23' W 090°53'0 0.0
2018-Jul-15 16:00N 32°23' W 090°53'0 0.0
2018-Jul-15 15:30N 32°23' W 090°53'0 0.0
2018-Jul-15 15:00N 32°23' W 090°53'0 0.0
2018-Jul-15 14:30N 32°23' W 090°53'0 0.0
2018-Jul-15 14:01N 32°23' W 090°53'0 0.0
2018-Jul-15 13:30N 32°23' W 090°53'1 1.4
2018-Jul-15 13:00N 32°23' W 090°53'1 1.1
2018-Jul-15 12:30N 32°22' W 090°53'1 1.5
2018-Jul-15 12:00N 32°22' W 090°53'2 3.3
2018-Jul-15 11:30N 32°20' W 090°54'1 1.0
2018-Jul-15 10:58N 32°20' W 090°54'0 0.0
2018-Jul-15 10:28N 32°20' W 090°54'2 4.3
2018-Jul-15 10:00N 32°21' W 090°53'2 3.6
2018-Jul-15 09:30N 32°23' W 090°53'0 0.0
2018-Jul-15 09:00N 32°23' W 090°53'0 0.0
2018-Jul-15 08:30N 32°23' W 090°53'0 0.0
2018-Jul-15 08:00N 32°23' W 090°53'0 0.0
2018-Jul-15 07:30N 32°23' W 090°53'0 0.0
2018-Jul-15 07:00N 32°23' W 090°53'0 0.0
2018-Jul-15 06:30N 32°23' W 090°53'0 0.0
2018-Jul-15 06:00N 32°23' W 090°53'0 0.0
2018-Jul-15 05:30N 32°23' W 090°53'0 0.0
2018-Jul-15 05:00N 32°23' W 090°53'0 0.0
2018-Jul-15 04:30N 32°23' W 090°53'0 0.0
2018-Jul-15 04:00N 32°23' W 090°53'0 0.0
2018-Jul-15 03:30N 32°23' W 090°53'0 0.0
2018-Jul-15 03:00N 32°23' W 090°53'0 0.0
2018-Jul-15 02:30N 32°23' W 090°53'0 0.0
2018-Jul-15 01:59N 32°23' W 090°53'0 0.0
2018-Jul-15 01:30N 32°23' W 090°53'0 0.0
2018-Jul-15 01:00N 32°23' W 090°53'0 0.0
2018-Jul-15 00:30N 32°23' W 090°53'1 2.2
2018-Jul-15 00:00N 32°22' W 090°53'2 4.2
2018-Jul-14 23:30N 32°20' W 090°54'1 0.2
2018-Jul-14 19:09N 32°20' W 090°54'1 4.0
2018-Jul-14 19:01N 32°20' W 090°54'1 2.9
2018-Jul-14 18:31N 32°19' W 090°55'2 0.1
2018-Jul-13 23:38N 32°21' W 090°54'0 3.8
2018-Jul-13 23:30N 32°21' W 090°53'1 2.8
2018-Jul-13 23:00N 32°20' W 090°54'0 0.0
2018-Jul-13 22:30N 32°20' W 090°54'1 1.4
2018-Jul-13 22:00N 32°20' W 090°54'0 0.2
2018-Jul-13 21:30N 32°20' W 090°54'0 0.7
2018-Jul-13 21:01N 32°20' W 090°54'2 4.8
2018-Jul-13 20:30N 32°22' W 090°53'1 2.3
2018-Jul-13 20:00N 32°23' W 090°53'0 0.1
2018-Jul-13 19:30N 32°23' W 090°53'1 1.2
2018-Jul-13 19:00N 32°23' W 090°53'3 6.1
2018-Jul-13 18:30N 32°20' W 090°54'0 0.8
2018-Jul-13 18:00N 32°20' W 090°54'0 0.0
2018-Jul-13 17:30N 32°20' W 090°54'0 0.0
2018-Jul-13 17:00N 32°20' W 090°54'0 0.0
2018-Jul-13 16:30N 32°20' W 090°54'3 5.6
2018-Jul-13 16:00N 32°22' W 090°53'1 2.9
2018-Jul-13 15:30N 32°23' W 090°54'0 0.3
2018-Jul-13 15:00N 32°23' W 090°54'0 0.0
2018-Jul-13 14:00N 32°23' W 090°54'0 0.5
2018-Jul-13 13:30N 32°23' W 090°54'1 1.8
2018-Jul-13 13:00N 32°23' W 090°53'1 1.8
2018-Jul-13 12:30N 32°23' W 090°54'0 0.0
2018-Jul-13 12:00N 32°23' W 090°54'  
Track history (hours):
 
Tides and Currents Weather Stations Pressure Air Temp Water Temp Dewpoint Dewpoint Depression Visibility Wind Speed Wind Dir Waves Ship Positions

M/V Gs980

Owner: ERGON MARINE AND INDUSTRIAL SUPPLY, VICKSBURG, MS. More information available from US FCC via Universal Licensing System and Coast Guard Vessel Documentation Center.

Last reported at 2018-Jul-23 11:30 UTC. Time now 2018-Jul-23 11:53 UTC.
Position N 32°20' W 090°54'.

Length 16 m.

Type: Towing. MMSI: 367099640.

Date/timePositionNaut miles runAvg speedWind from/ knotsBaromVisibWave heightAir tempDewpointWater temp
2018-Jul-23 11:30N 32°20' W 090°54'0 0.0
2018-Jul-23 11:00N 32°20' W 090°54'0 0.0
2018-Jul-23 10:30N 32°20' W 090°54'0 0.0
2018-Jul-23 10:00N 32°20' W 090°54'0 0.0
2018-Jul-23 09:30N 32°20' W 090°54'0 0.0
2018-Jul-23 09:01N 32°20' W 090°54'0 0.0
2018-Jul-23 08:29N 32°20' W 090°54'0 0.0
2018-Jul-23 07:59N 32°20' W 090°54'0 0.0
2018-Jul-23 07:30N 32°20' W 090°54'0 0.0
2018-Jul-23 07:01N 32°20' W 090°54'0 0.0
2018-Jul-23 06:30N 32°20' W 090°54'0 0.0
2018-Jul-23 05:58N 32°20' W 090°54'0 0.0
2018-Jul-23 05:31N 32°20' W 090°54'1 2.7
2018-Jul-23 05:00N 32°19' W 090°55'1 1.3
2018-Jul-23 04:31N 32°18' W 090°55'0 0.0
2018-Jul-23 04:00N 32°18' W 090°55'0 0.0
2018-Jul-23 03:31N 32°18' W 090°55'0 0.0
2018-Jul-23 03:00N 32°18' W 090°55'0 0.0
2018-Jul-23 02:31N 32°18' W 090°55'0 0.0
2018-Jul-23 02:01N 32°18' W 090°55'0 0.0
2018-Jul-23 01:30N 32°18' W 090°55'0 0.0
2018-Jul-23 01:01N 32°18' W 090°55'1 1.4
2018-Jul-23 00:31N 32°18' W 090°56'0 0.0
2018-Jul-23 00:01N 32°18' W 090°56'0 0.0
2018-Jul-22 23:30N 32°18' W 090°56'2 0.1
2018-Jul-21 03:07N 32°20' W 090°54'0 0.0
2018-Jul-21 03:00N 32°20' W 090°54'0 0.0
2018-Jul-21 02:30N 32°20' W 090°54'0 0.0
2018-Jul-21 02:00N 32°20' W 090°54'0 0.0
2018-Jul-21 01:30N 32°20' W 090°54'0 0.0
2018-Jul-21 01:00N 32°20' W 090°54'0 0.0
2018-Jul-21 00:29N 32°20' W 090°54'0 0.0
2018-Jul-21 00:00N 32°20' W 090°54'0 0.7
2018-Jul-20 23:30N 32°20' W 090°54'0 0.7
2018-Jul-20 23:00N 32°20' W 090°54'0 0.0
2018-Jul-20 22:30N 32°20' W 090°54'0 0.0
2018-Jul-20 22:01N 32°20' W 090°54'0 0.0
2018-Jul-20 21:30N 32°20' W 090°54'0 0.0
2018-Jul-20 21:00N 32°20' W 090°54'0 0.0
2018-Jul-20 20:30N 32°20' W 090°54'0 0.0
2018-Jul-20 20:00N 32°20' W 090°54'0 0.0
2018-Jul-20 19:30N 32°20' W 090°54'0 0.0
2018-Jul-20 19:00N 32°20' W 090°54'0 0.0
2018-Jul-20 18:30N 32°20' W 090°54'0 0.0
2018-Jul-20 18:00N 32°20' W 090°54'0 0.0
2018-Jul-20 17:30N 32°20' W 090°54'0 0.0
2018-Jul-20 17:00N 32°20' W 090°54'3 5.3
2018-Jul-20 16:30N 32°22' W 090°53'1 2.7
2018-Jul-20 16:00N 32°23' W 090°53'0 0.0
2018-Jul-20 15:30N 32°23' W 090°53'0 0.0
2018-Jul-20 15:00N 32°23' W 090°53'0 0.0
2018-Jul-20 14:31N 32°23' W 090°53'0 0.0
2018-Jul-20 14:00N 32°23' W 090°53'0 0.1
2018-Jul-20 13:30N 32°23' W 090°53'0 0.8
2018-Jul-20 13:00N 32°23' W 090°54'1 2.8
2018-Jul-20 12:30N 32°22' W 090°53'1 1.6
2018-Jul-20 12:00N 32°22' W 090°53'2 4.5
2018-Jul-20 11:30N 32°20' W 090°54'0 0.0
2018-Jul-20 11:00N 32°20' W 090°54'0 0.0
2018-Jul-20 10:30N 32°20' W 090°54'2 4.2
2018-Jul-20 10:00N 32°22' W 090°53'0 0.0
2018-Jul-20 09:30N 32°22' W 090°53'0 0.0
2018-Jul-20 09:00N 32°22' W 090°53'0 0.0
2018-Jul-20 08:30N 32°22' W 090°53'0 0.0
2018-Jul-20 08:00N 32°22' W 090°53'0 0.0
2018-Jul-20 07:30N 32°22' W 090°53'0 0.2
2018-Jul-20 07:00N 32°22' W 090°53'2 3.2
2018-Jul-20 06:30N 32°23' W 090°53'2 3.4
2018-Jul-20 06:00N 32°22' W 090°53'0 0.6
2018-Jul-20 05:30N 32°21' W 090°53'3 6.0
2018-Jul-20 05:00N 32°19' W 090°55'1 1.1
2018-Jul-20 04:30N 32°18' W 090°55'0 0.0
2018-Jul-20 04:00N 32°18' W 090°55'0 0.1
2018-Jul-20 03:30N 32°18' W 090°55'0 0.1
2018-Jul-20 03:00N 32°18' W 090°55'0 0.1
2018-Jul-20 02:30N 32°18' W 090°55'2 4.6
2018-Jul-20 02:00N 32°20' W 090°54'0 0.1
2018-Jul-20 01:31N 32°20' W 090°54'1 1.4
2018-Jul-20 01:00N 32°21' W 090°53'3 5.5
2018-Jul-20 00:29N 32°18' W 090°55'0 0.0
2018-Jul-19 23:58N 32°18' W 090°55'1 1.6
2018-Jul-19 23:30N 32°19' W 090°54'1 1.8
2018-Jul-19 23:00N 32°20' W 090°54'0 0.0
2018-Jul-19 22:30N 32°20' W 090°54'0 0.0
2018-Jul-19 22:00N 32°20' W 090°54'0 0.0
2018-Jul-19 21:30N 32°20' W 090°54'1 1.1
2018-Jul-19 21:00N 32°20' W 090°54'0 0.2
2018-Jul-19 20:27N 32°20' W 090°54'2 4.7
2018-Jul-19 20:00N 32°22' W 090°53'1 2.8
2018-Jul-19 19:30N 32°23' W 090°53'0 0.7
2018-Jul-19 19:00N 32°23' W 090°54'1 1.5
2018-Jul-19 18:30N 32°23' W 090°53'1 1.3
2018-Jul-19 18:00N 32°22' W 090°53'1 2.1
2018-Jul-19 17:30N 32°23' W 090°53'1 2.2
2018-Jul-19 17:00N 32°22' W 090°53'1 2.3
2018-Jul-19 16:30N 32°23' W 090°53'1 1.1
2018-Jul-19 16:00N 32°23' W 090°53'1 1.3
2018-Jul-19 15:30N 32°22' W 090°53'3 5.4
2018-Jul-19 15:00N 32°20' W 090°54'0 0.3
2018-Jul-19 14:25N 32°20' W 090°54'0 0.0
2018-Jul-19 13:28N 32°20' W 090°54'0 0.0
2018-Jul-19 13:00N 32°20' W 090°54'0 0.0
2018-Jul-19 12:29N 32°20' W 090°54'0 0.0
2018-Jul-19 11:56N 32°20' W 090°54'0 0.0
2018-Jul-19 11:28N 32°20' W 090°54'0 0.0
2018-Jul-19 11:00N 32°20' W 090°54'0 0.0
2018-Jul-19 10:30N 32°20' W 090°54'0 0.0
2018-Jul-19 09:59N 32°20' W 090°54'0 0.0
2018-Jul-19 09:30N 32°20' W 090°54'0 0.0
2018-Jul-19 09:00N 32°20' W 090°54'0 0.0
2018-Jul-19 08:30N 32°20' W 090°54'0 0.0
2018-Jul-19 08:00N 32°20' W 090°54'1 2.4
2018-Jul-19 07:30N 32°19' W 090°55'1 1.3
2018-Jul-19 07:00N 32°18' W 090°55'0 0.1
2018-Jul-19 06:30N 32°18' W 090°55'1 1.4
2018-Jul-19 06:01N 32°19' W 090°54'3 6.6
2018-Jul-19 05:30N 32°22' W 090°53'2 3.5
2018-Jul-19 05:00N 32°23' W 090°54'1 2.8
2018-Jul-19 04:30N 32°22' W 090°53'1 1.1
2018-Jul-19 04:00N 32°22' W 090°53'0 0.1
2018-Jul-19 03:30N 32°22' W 090°53'1 1.6
2018-Jul-19 03:00N 32°22' W 090°53'1 1.2
2018-Jul-19 02:30N 32°22' W 090°53'2 4.1
2018-Jul-19 02:00N 32°20' W 090°54'2 4.0
2018-Jul-19 01:30N 32°18' W 090°55'3 6.6
2018-Jul-19 01:00N 32°21' W 090°53'2 4.2
2018-Jul-19 00:31N 32°23' W 090°53'0 1.0
2018-Jul-19 00:01N 32°23' W 090°53'0 0.2
2018-Jul-18 23:30N 32°23' W 090°53'0 0.0
2018-Jul-18 23:00N 32°23' W 090°53'0 0.0
2018-Jul-18 22:30N 32°23' W 090°53'2 3.5
2018-Jul-18 22:00N 32°21' W 090°53'1 2.5
2018-Jul-18 21:30N 32°20' W 090°54'2 4.4
2018-Jul-18 21:00N 32°22' W 090°53'1 3.0
2018-Jul-18 20:30N 32°21' W 090°53'1 1.9
2018-Jul-18 20:00N 32°20' W 090°54'2 4.5
2018-Jul-18 19:30N 32°18' W 090°55'0 0.1
2018-Jul-18 19:00N 32°18' W 090°55'0 0.0
2018-Jul-18 18:30N 32°18' W 090°55'0 0.0
2018-Jul-18 18:00N 32°18' W 090°55'0 0.0
2018-Jul-18 17:30N 32°18' W 090°55'0 0.1
2018-Jul-18 17:00N 32°18' W 090°55'0 0.1
2018-Jul-18 16:31N 32°18' W 090°55'0 0.1
2018-Jul-18 16:00N 32°18' W 090°55'0 0.1
2018-Jul-18 15:30N 32°18' W 090°55'0 0.0
2018-Jul-18 15:00N 32°18' W 090°55'0 0.2
2018-Jul-18 14:30N 32°18' W 090°55'0 0.1
2018-Jul-18 13:30N 32°18' W 090°55'3 5.8
2018-Jul-18 13:00N 32°21' W 090°53'2 4.9
2018-Jul-18 12:30N 32°23' W 090°53'0 0.9
2018-Jul-18 12:00N 32°23' W 090°53'3 6.3
2018-Jul-18 11:31N 32°20' W 090°54'3 3.3
2018-Jul-18 10:31N 32°23' W 090°54'0 0.3
2018-Jul-18 10:00N 32°23' W 090°54'0 0.6
2018-Jul-18 09:30N 32°23' W 090°53'0 0.0
2018-Jul-18 09:00N 32°23' W 090°53'0 0.0
2018-Jul-18 08:30N 32°23' W 090°53'0 0.0
2018-Jul-18 08:00N 32°23' W 090°53'0 0.0
2018-Jul-18 07:30N 32°23' W 090°53'0 0.0
2018-Jul-18 07:01N 32°23' W 090°53'0 0.0
2018-Jul-18 06:30N 32°23' W 090°53'0 0.0
2018-Jul-18 06:00N 32°23' W 090°53'0 0.0
2018-Jul-18 05:30N 32°23' W 090°53'0 0.0
2018-Jul-18 05:00N 32°23' W 090°53'0 0.0
2018-Jul-18 04:30N 32°23' W 090°53'0 0.0
2018-Jul-18 03:59N 32°23' W 090°53'0 0.0
2018-Jul-18 03:30N 32°23' W 090°53'0 0.0
2018-Jul-18 03:00N 32°23' W 090°53'0 0.0
2018-Jul-18 02:30N 32°23' W 090°53'1 1.8
2018-Jul-18 02:00N 32°22' W 090°53'3 5.2
2018-Jul-18 01:30N 32°20' W 090°54'2 3.9
2018-Jul-18 01:00N 32°18' W 090°55'0 0.0
2018-Jul-18 00:30N 32°18' W 090°55'3 6.9
2018-Jul-18 00:00N 32°21' W 090°53'2 3.2
2018-Jul-17 23:31N 32°20' W 090°54'0 0.3
2018-Jul-17 23:00N 32°20' W 090°54'0 0.0
2018-Jul-17 22:30N 32°20' W 090°54'1 1.9
2018-Jul-17 22:00N 32°20' W 090°54'0 0.1
2018-Jul-17 21:30N 32°21' W 090°54'2 4.8
2018-Jul-17 21:00N 32°23' W 090°53'1 1.8
2018-Jul-17 20:30N 32°23' W 090°53'0 0.0
2018-Jul-17 20:00N 32°23' W 090°53'0 0.0
2018-Jul-17 19:31N 32°23' W 090°53'0 0.0
2018-Jul-17 19:00N 32°23' W 090°53'0 0.0
2018-Jul-17 18:30N 32°23' W 090°53'0 0.0
2018-Jul-17 18:00N 32°23' W 090°53'0 0.0
2018-Jul-17 17:30N 32°23' W 090°53'0 0.0
2018-Jul-17 17:00N 32°23' W 090°53'0 0.8
2018-Jul-17 16:30N 32°23' W 090°53'2 3.1
2018-Jul-17 15:59N 32°21' W 090°53'2 3.6
2018-Jul-17 15:30N 32°23' W 090°53'0 0.1
2018-Jul-17 15:00N 32°23' W 090°53'0 0.8
2018-Jul-17 14:30N 32°23' W 090°54'0 0.3
2018-Jul-17 14:00N 32°23' W 090°54'1 2.2
2018-Jul-17 13:30N 32°23' W 090°53'2 3.4
2018-Jul-17 13:00N 32°21' W 090°53'1 1.7
2018-Jul-17 12:30N 32°21' W 090°54'0 0.0
2018-Jul-17 12:00N 32°21' W 090°54'1 1.2
2018-Jul-17 11:30N 32°20' W 090°54'0 0.8
2018-Jul-17 11:00N 32°20' W 090°54'0 0.0
2018-Jul-17 10:30N 32°20' W 090°54'1 1.7
2018-Jul-17 10:00N 32°20' W 090°54'3 5.3
2018-Jul-17 09:30N 32°23' W 090°53'0 0.0
2018-Jul-17 09:00N 32°23' W 090°53'0 0.0
2018-Jul-17 08:29N 32°23' W 090°53'0 0.1
2018-Jul-17 08:00N 32°23' W 090°53'1 1.7
2018-Jul-17 07:30N 32°23' W 090°54'1 1.8
2018-Jul-17 07:00N 32°23' W 090°53'0 0.1
2018-Jul-17 06:30N 32°23' W 090°53'1 1.9
2018-Jul-17 06:00N 32°23' W 090°54'0 0.9
2018-Jul-17 05:30N 32°23' W 090°53'0 0.0
2018-Jul-17 04:58N 32°23' W 090°53'0 0.0
2018-Jul-17 04:30N 32°23' W 090°53'0 0.0
2018-Jul-17 03:58N 32°23' W 090°53'0 0.2
2018-Jul-17 03:30N 32°23' W 090°54'0 0.2
2018-Jul-17 03:00N 32°23' W 090°53'0 0.2
2018-Jul-17 02:30N 32°23' W 090°53'0 0.3
2018-Jul-17 02:00N 32°23' W 090°53'2 3.4
2018-Jul-17 01:30N 32°22' W 090°53'2 3.1
2018-Jul-17 01:00N 32°20' W 090°54'2 4.5
2018-Jul-17 00:30N 32°22' W 090°53'3 2.6
2018-Jul-16 23:31N 32°20' W 090°54'0 0.4
2018-Jul-16 22:57N 32°20' W 090°54'2 4.7
2018-Jul-16 22:30N 32°22' W 090°53'1 2.5
2018-Jul-16 22:00N 32°23' W 090°53'1 1.7
2018-Jul-16 21:29N 32°23' W 090°53'0 0.0
2018-Jul-16 21:00N 32°23' W 090°53'0 0.0
2018-Jul-16 20:30N 32°23' W 090°53'0 0.0
2018-Jul-16 20:00N 32°23' W 090°53'0 0.1
2018-Jul-16 19:30N 32°23' W 090°53'1 1.6
2018-Jul-16 19:00N 32°23' W 090°53'3 5.5
2018-Jul-16 18:30N 32°20' W 090°54'2 4.6
2018-Jul-16 18:00N 32°22' W 090°53'1 2.3
2018-Jul-16 17:30N 32°23' W 090°53'0 0.0
2018-Jul-16 17:00N 32°23' W 090°53'0 0.6
2018-Jul-16 16:30N 32°23' W 090°53'3 5.5
2018-Jul-16 16:00N 32°20' W 090°54'2 3.6
2018-Jul-16 15:29N 32°19' W 090°55'1 2.5
2018-Jul-16 15:00N 32°20' W 090°54'3 6.1
2018-Jul-16 14:30N 32°23' W 090°52'1 1.9
2018-Jul-16 14:00N 32°23' W 090°53'2 4.1
2018-Jul-16 13:30N 32°21' W 090°53'1 2.8
2018-Jul-16 12:59N 32°21' W 090°55'2 4.1
2018-Jul-16 12:30N 32°21' W 090°57'2 4.2
2018-Jul-16 12:00N 32°21' W 090°54'1 2.3
2018-Jul-16 11:31N 32°20' W 090°54'0 0.0
2018-Jul-16 11:00N 32°20' W 090°54'0 0.0
2018-Jul-16 10:31N 32°20' W 090°54'0 0.0
2018-Jul-16 10:01N 32°20' W 090°54'0 0.0
2018-Jul-16 09:30N 32°20' W 090°54'0 0.0
2018-Jul-16 09:00N 32°20' W 090°54'0 0.0
2018-Jul-16 08:30N 32°20' W 090°54'0 0.0
2018-Jul-16 08:00N 32°20' W 090°54'2 4.7
2018-Jul-16 07:30N 32°21' W 090°56'0 0.2
2018-Jul-16 07:00N 32°21' W 090°56'0 0.2
2018-Jul-16 06:30N 32°21' W 090°56'0 0.6
2018-Jul-16 06:01N 32°21' W 090°56'0 0.0
2018-Jul-16 05:30N 32°21' W 090°56'1 2.9
2018-Jul-16 05:00N 32°21' W 090°55'1 2.0
2018-Jul-16 04:30N 32°20' W 090°54'2 3.8
2018-Jul-16 04:00N 32°19' W 090°55'1 1.7
2018-Jul-16 03:30N 32°18' W 090°55'0 0.9
2018-Jul-16 03:00N 32°18' W 090°55'2 4.6
2018-Jul-16 02:30N 32°20' W 090°54'0 0.0
2018-Jul-16 02:00N 32°20' W 090°54'0 0.0
2018-Jul-16 01:30N 32°20' W 090°54'1 1.2
2018-Jul-16 01:00N 32°20' W 090°54'2 3.4
2018-Jul-16 00:30N 32°18' W 090°55'2 3.1
2018-Jul-16 00:00N 32°19' W 090°54'2 3.2
2018-Jul-15 23:30N 32°21' W 090°53'1 2.7
2018-Jul-15 22:59N 32°20' W 090°54'0 0.0
2018-Jul-15 22:28N 32°20' W 090°54'1 2.3
2018-Jul-15 22:01N 32°21' W 090°54'3 5.2
2018-Jul-15 21:30N 32°23' W 090°53'1 2.2
2018-Jul-15 21:00N 32°22' W 090°53'0 0.1
2018-Jul-15 20:30N 32°22' W 090°53'1 2.3
2018-Jul-15 20:00N 32°23' W 090°53'0 0.0
2018-Jul-15 19:30N 32°23' W 090°53'0 0.0
2018-Jul-15 19:00N 32°23' W 090°53'0 0.0
2018-Jul-15 18:30N 32°23' W 090°53'0 0.0
2018-Jul-15 18:00N 32°23' W 090°53'0 0.0
2018-Jul-15 17:30N 32°23' W 090°53'0 0.0
2018-Jul-15 17:00N 32°23' W 090°53'0 0.0
2018-Jul-15 16:30N 32°23' W 090°53'0 0.0
2018-Jul-15 16:00N 32°23' W 090°53'0 0.0
2018-Jul-15 15:30N 32°23' W 090°53'0 0.0
2018-Jul-15 15:00N 32°23' W 090°53'0 0.0
2018-Jul-15 14:30N 32°23' W 090°53'0 0.0
2018-Jul-15 14:01N 32°23' W 090°53'0 0.0
2018-Jul-15 13:30N 32°23' W 090°53'1 1.4
2018-Jul-15 13:00N 32°23' W 090°53'1 1.1
2018-Jul-15 12:30N 32°22' W 090°53'1 1.5
2018-Jul-15 12:00N 32°22' W 090°53'2 3.3
2018-Jul-15 11:30N 32°20' W 090°54'1 1.0
2018-Jul-15 10:58N 32°20' W 090°54'0 0.0
2018-Jul-15 10:28N 32°20' W 090°54'2 4.3
2018-Jul-15 10:00N 32°21' W 090°53'2 3.6
2018-Jul-15 09:30N 32°23' W 090°53'0 0.0
2018-Jul-15 09:00N 32°23' W 090°53'0 0.0
2018-Jul-15 08:30N 32°23' W 090°53'0 0.0
2018-Jul-15 08:00N 32°23' W 090°53'0 0.0
2018-Jul-15 07:30N 32°23' W 090°53'0 0.0
2018-Jul-15 07:00N 32°23' W 090°53'0 0.0
2018-Jul-15 06:30N 32°23' W 090°53'0 0.0
2018-Jul-15 06:00N 32°23' W 090°53'0 0.0
2018-Jul-15 05:30N 32°23' W 090°53'0 0.0
2018-Jul-15 05:00N 32°23' W 090°53'0 0.0
2018-Jul-15 04:30N 32°23' W 090°53'0 0.0
2018-Jul-15 04:00N 32°23' W 090°53'0 0.0
2018-Jul-15 03:30N 32°23' W 090°53'0 0.0
2018-Jul-15 03:00N 32°23' W 090°53'0 0.0
2018-Jul-15 02:30N 32°23' W 090°53'0 0.0
2018-Jul-15 01:59N 32°23' W 090°53'0 0.0
2018-Jul-15 01:30N 32°23' W 090°53'0 0.0
2018-Jul-15 01:00N 32°23' W 090°53'0 0.0
2018-Jul-15 00:30N 32°23' W 090°53'1 2.2
2018-Jul-15 00:00N 32°22' W 090°53'2 4.2
2018-Jul-14 23:30N 32°20' W 090°54'1 0.2
2018-Jul-14 19:09N 32°20' W 090°54'1 4.0
2018-Jul-14 19:01N 32°20' W 090°54'1 2.9
2018-Jul-14 18:31N 32°19' W 090°55'2 0.1
2018-Jul-13 23:38N 32°21' W 090°54'0 3.8
2018-Jul-13 23:30N 32°21' W 090°53'1 2.8
2018-Jul-13 23:00N 32°20' W 090°54'0 0.0
2018-Jul-13 22:30N 32°20' W 090°54'1 1.4
2018-Jul-13 22:00N 32°20' W 090°54'0 0.2
2018-Jul-13 21:30N 32°20' W 090°54'0 0.7
2018-Jul-13 21:01N 32°20' W 090°54'2 4.8
2018-Jul-13 20:30N 32°22' W 090°53'1 2.3
2018-Jul-13 20:00N 32°23' W 090°53'0 0.1
2018-Jul-13 19:30N 32°23' W 090°53'1 1.2
2018-Jul-13 19:00N 32°23' W 090°53'3 6.1
2018-Jul-13 18:30N 32°20' W 090°54'0 0.8
2018-Jul-13 18:00N 32°20' W 090°54'0 0.0
2018-Jul-13 17:30N 32°20' W 090°54'0 0.0
2018-Jul-13 17:00N 32°20' W 090°54'0 0.0
2018-Jul-13 16:30N 32°20' W 090°54'3 5.6
2018-Jul-13 16:00N 32°22' W 090°53'1 2.9
2018-Jul-13 15:30N 32°23' W 090°54'0 0.3
2018-Jul-13 15:00N 32°23' W 090°54'0 0.0
2018-Jul-13 14:00N 32°23' W 090°54'0 0.5
2018-Jul-13 13:30N 32°23' W 090°54'1 1.8
2018-Jul-13 13:00N 32°23' W 090°53'1 1.8
2018-Jul-13 12:30N 32°23' W 090°54'0 0.0
2018-Jul-13 12:00N 32°23' W 090°54'  

Dump ship's entire track history